Etusivu
METAR-TAF:

METAR-TAF

Lentoasemat :

Golden, Brittiläinen Kolumbia, Kanada

Leveyspiiri: 51-18N, Pituuspiiri: 116-59W, korkeus merenpinnasta: 785 m

Tämänhetkinen sää

Tämä raportti tehtiin 40 minuuttia sitten, kello 19.00 UTC
Tuuli 4 kn kaakosta
Lämpötila -8°C
Kosteus 92%
Ilmanpaine 1031 hPa
Näkyvyys: 32.2 km
Hajanaisia pilviä 500 ft:n korkeudessa
Hajanaisia pilviä 14000 ft:n korkeudessa

METAR: CYGE 031900Z 13004KT 20SM SCT005 SCT140 M08/M09 A3046 RMK ST3AC1 AC TR SLP371

Aika: 12:40 (19:40 UTC)


TAF: puuttuu

Säähavainnot ja -ennusteet yli 4000 lentoasemalta (METAR- ja TAF-raportit).

Käytössä olevat sääasemat on merkitty karttaan keltaisilla ja punaisilla pisteillä.

Aseta hiiri pisteen päälle nähdäksesi sääaseman nimen.

Klikkaa sitten nähdäksesi säähavainnot ja -ennusteet.

Kartan vaihtaminen: klikkaa mustalla rastilla varustettuja vihreitä pisteitä, niin voit zoomata sisään; viivalla varustettua vihreää pistettä, niin voit zoomata ulos tai vihreitä nuolia, niin pääset viereisille kartoille.


METAR-TAF: